sensor_id;sensor_type;location;lat;lon;timestamp;temperature;humidity
51950;DHT22;37974;53.218;6.640;2023-06-26T00:02:27;21.80;99.90
51950;DHT22;37974;53.218;6.640;2023-06-26T00:05:21;21.70;99.90
51950;DHT22;37974;53.218;6.640;2023-06-26T00:08:09;21.70;99.90
51950;DHT22;37974;53.218;6.640;2023-06-26T00:10:38;21.70;99.90
51950;DHT22;37974;53.218;6.640;2023-06-26T00:14:09;21.60;99.90
51950;DHT22;37974;53.218;6.640;2023-06-26T00:16:49;21.50;99.90
51950;DHT22;37974;53.218;6.640;2023-06-26T00:19:24;21.60;99.90
51950;DHT22;37974;53.218;6.640;2023-06-26T00:25:09;21.50;99.90
51950;DHT22;37974;53.218;6.640;2023-06-26T00:27:52;21.40;99.90
51950;DHT22;37974;53.218;6.640;2023-06-26T00:30:53;21.40;99.90
51950;DHT22;37974;53.218;6.640;2023-06-26T00:33:29;21.40;99.90
51950;DHT22;37974;53.218;6.640;2023-06-26T00:36:09;21.40;99.90
51950;DHT22;37974;53.218;6.640;2023-06-26T00:41:54;21.40;99.90
51950;DHT22;37974;53.218;6.640;2023-06-26T00:44:41;21.40;99.90
51950;DHT22;37974;53.218;6.640;2023-06-26T00:59:02;21.40;99.90
51950;DHT22;37974;53.218;6.640;2023-06-26T01:02:17;21.30;99.90
51950;DHT22;37974;53.218;6.640;2023-06-26T01:04:33;21.20;99.90
51950;DHT22;37974;53.218;6.640;2023-06-26T01:07:47;21.30;99.90
51950;DHT22;37974;53.218;6.640;2023-06-26T01:13:31;21.10;99.90
51950;DHT22;37974;53.218;6.640;2023-06-26T01:21:37;21.10;99.90
51950;DHT22;37974;53.218;6.640;2023-06-26T01:24:38;21.10;99.90
51950;DHT22;37974;53.218;6.640;2023-06-26T01:27:19;21.00;99.90
51950;DHT22;37974;53.218;6.640;2023-06-26T01:30:16;21.00;99.90
51950;DHT22;37974;53.218;6.640;2023-06-26T01:32:44;21.10;99.90
51950;DHT22;37974;53.218;6.640;2023-06-26T01:38:16;21.00;99.90
51950;DHT22;37974;53.218;6.640;2023-06-26T01:41:04;21.00;99.90
51950;DHT22;37974;53.218;6.640;2023-06-26T01:47:01;21.00;99.90
51950;DHT22;37974;53.218;6.640;2023-06-26T01:58:43;21.00;99.90
51950;DHT22;37974;53.218;6.640;2023-06-26T02:01:09;20.90;99.90
51950;DHT22;37974;53.218;6.640;2023-06-26T02:07:16;20.90;99.90
51950;DHT22;37974;53.218;6.640;2023-06-26T02:09:56;20.70;99.90
51950;DHT22;37974;53.218;6.640;2023-06-26T02:15:25;20.80;99.90
51950;DHT22;37974;53.218;6.640;2023-06-26T02:18:08;20.90;99.90
51950;DHT22;37974;53.218;6.640;2023-06-26T02:20:49;20.80;99.90
51950;DHT22;37974;53.218;6.640;2023-06-26T02:23:37;20.80;99.90
51950;DHT22;37974;53.218;6.640;2023-06-26T02:26:08;20.80;99.90
51950;DHT22;37974;53.218;6.640;2023-06-26T02:28:56;20.70;99.90
51950;DHT22;37974;53.218;6.640;2023-06-26T02:36:03;20.80;99.90
51950;DHT22;37974;53.218;6.640;2023-06-26T02:41:42;20.70;99.90
51950;DHT22;37974;53.218;6.640;2023-06-26T02:44:37;20.70;99.90
51950;DHT22;37974;53.218;6.640;2023-06-26T02:47:26;20.70;99.90
51950;DHT22;37974;53.218;6.640;2023-06-26T02:50:19;20.60;99.90
51950;DHT22;37974;53.218;6.640;2023-06-26T02:53:05;20.60;99.90
51950;DHT22;37974;53.218;6.640;2023-06-26T02:59:46;20.60;99.90
51950;DHT22;37974;53.218;6.640;2023-06-26T03:02:28;20.50;99.90
51950;DHT22;37974;53.218;6.640;2023-06-26T03:05:09;20.50;99.90
51950;DHT22;37974;53.218;6.640;2023-06-26T03:11:09;20.50;99.90
51950;DHT22;37974;53.218;6.640;2023-06-26T03:14:06;20.50;99.90
51950;DHT22;37974;53.218;6.640;2023-06-26T03:20:20;20.50;99.90
51950;DHT22;37974;53.218;6.640;2023-06-26T03:26:04;20.60;99.90
51950;DHT22;37974;53.218;6.640;2023-06-26T03:29:34;20.70;99.90
51950;DHT22;37974;53.218;6.640;2023-06-26T03:32:24;20.70;99.90
51950;DHT22;37974;53.218;6.640;2023-06-26T03:35:47;20.80;99.90
51950;DHT22;37974;53.218;6.640;2023-06-26T03:38:09;20.80;99.90
51950;DHT22;37974;53.218;6.640;2023-06-26T03:49:56;21.10;99.90
51950;DHT22;37974;53.218;6.640;2023-06-26T03:53:03;21.20;99.90
51950;DHT22;37974;53.218;6.640;2023-06-26T04:08:46;21.30;99.90
51950;DHT22;37974;53.218;6.640;2023-06-26T04:32:43;21.20;99.90
51950;DHT22;37974;53.218;6.640;2023-06-26T04:35:18;21.50;99.90
51950;DHT22;37974;53.218;6.640;2023-06-26T04:37:45;21.40;99.90
51950;DHT22;37974;53.218;6.640;2023-06-26T04:40:12;21.60;99.90
51950;DHT22;37974;53.218;6.640;2023-06-26T04:42:45;21.70;99.90
51950;DHT22;37974;53.218;6.640;2023-06-26T04:45:10;21.80;99.90
51950;DHT22;37974;53.218;6.640;2023-06-26T04:47:36;21.80;99.90
51950;DHT22;37974;53.218;6.640;2023-06-26T04:50:04;21.90;99.90
51950;DHT22;37974;53.218;6.640;2023-06-26T04:52:50;21.80;99.90
51950;DHT22;37974;53.218;6.640;2023-06-26T04:55:16;22.00;99.90
51950;DHT22;37974;53.218;6.640;2023-06-26T04:57:41;22.10;99.90
51950;DHT22;37974;53.218;6.640;2023-06-26T05:00:17;21.80;99.90
51950;DHT22;37974;53.218;6.640;2023-06-26T05:02:46;22.00;99.90
51950;DHT22;37974;53.218;6.640;2023-06-26T05:05:36;21.90;99.90
51950;DHT22;37974;53.218;6.640;2023-06-26T05:10:52;21.80;99.90
51950;DHT22;37974;53.218;6.640;2023-06-26T05:13:23;21.70;99.90
51950;DHT22;37974;53.218;6.640;2023-06-26T05:33:44;20.90;99.90
51950;DHT22;37974;53.218;6.640;2023-06-26T05:36:16;20.80;99.90
51950;DHT22;37974;53.218;6.640;2023-06-26T05:38:51;20.70;99.90
51950;DHT22;37974;53.218;6.640;2023-06-26T05:41:23;20.60;99.90
51950;DHT22;37974;53.218;6.640;2023-06-26T05:46:40;20.50;99.90
51950;DHT22;37974;53.218;6.640;2023-06-26T05:49:06;20.40;99.90
51950;DHT22;37974;53.218;6.640;2023-06-26T05:51:31;20.30;99.90
51950;DHT22;37974;53.218;6.640;2023-06-26T05:53:57;20.30;99.90
51950;DHT22;37974;53.218;6.640;2023-06-26T05:56:23;20.20;99.90
51950;DHT22;37974;53.218;6.640;2023-06-26T05:58:49;20.20;99.90
51950;DHT22;37974;53.218;6.640;2023-06-26T06:01:15;20.20;99.90
51950;DHT22;37974;53.218;6.640;2023-06-26T06:03:40;20.20;99.90
51950;DHT22;37974;53.218;6.640;2023-06-26T06:06:06;20.20;99.90
51950;DHT22;37974;53.218;6.640;2023-06-26T06:08:32;20.30;99.90
51950;DHT22;37974;53.218;6.640;2023-06-26T06:10:59;20.20;99.90
51950;DHT22;37974;53.218;6.640;2023-06-26T06:13:25;20.20;99.90
51950;DHT22;37974;53.218;6.640;2023-06-26T06:15:50;20.20;99.90
51950;DHT22;37974;53.218;6.640;2023-06-26T06:18:19;20.30;99.90
51950;DHT22;37974;53.218;6.640;2023-06-26T06:20:44;20.00;99.90
51950;DHT22;37974;53.218;6.640;2023-06-26T06:23:10;20.50;99.90
51950;DHT22;37974;53.218;6.640;2023-06-26T06:25:48;20.60;99.90
51950;DHT22;37974;53.218;6.640;2023-06-26T06:28:14;20.50;99.90
51950;DHT22;37974;53.218;6.640;2023-06-26T06:31:06;20.40;99.90
51950;DHT22;37974;53.218;6.640;2023-06-26T06:33:54;20.50;99.90
51950;DHT22;37974;53.218;6.640;2023-06-26T06:45:11;20.80;99.90
51950;DHT22;37974;53.218;6.640;2023-06-26T06:47:37;21.00;99.90
51950;DHT22;37974;53.218;6.640;2023-06-26T06:50:09;20.90;99.90
51950;DHT22;37974;53.218;6.640;2023-06-26T06:52:38;21.00;99.90
51950;DHT22;37974;53.218;6.640;2023-06-26T06:55:07;21.10;99.90
51950;DHT22;37974;53.218;6.640;2023-06-26T06:57:36;21.10;99.90
51950;DHT22;37974;53.218;6.640;2023-06-26T07:00:05;21.40;99.90
51950;DHT22;37974;53.218;6.640;2023-06-26T07:02:43;21.20;99.90
51950;DHT22;37974;53.218;6.640;2023-06-26T07:05:09;21.30;99.90
51950;DHT22;37974;53.218;6.640;2023-06-26T07:07:38;21.30;99.90
51950;DHT22;37974;53.218;6.640;2023-06-26T07:10:05;21.30;99.90
51950;DHT22;37974;53.218;6.640;2023-06-26T07:12:50;21.40;99.90
51950;DHT22;37974;53.218;6.640;2023-06-26T07:15:22;21.80;99.90
51950;DHT22;37974;53.218;6.640;2023-06-26T07:20:57;21.80;99.90
51950;DHT22;37974;53.218;6.640;2023-06-26T07:23:28;21.90;99.90
51950;DHT22;37974;53.218;6.640;2023-06-26T07:26:03;21.90;99.90
51950;DHT22;37974;53.218;6.640;2023-06-26T07:28:29;22.00;99.90
51950;DHT22;37974;53.218;6.640;2023-06-26T07:30:55;21.90;99.90
51950;DHT22;37974;53.218;6.640;2023-06-26T07:33:20;22.00;99.90
51950;DHT22;37974;53.218;6.640;2023-06-26T07:35:46;22.10;99.90
51950;DHT22;37974;53.218;6.640;2023-06-26T07:44:10;22.10;99.90
51950;DHT22;37974;53.218;6.640;2023-06-26T07:46:38;22.30;99.90
51950;DHT22;37974;53.218;6.640;2023-06-26T07:49:13;22.20;99.90
51950;DHT22;37974;53.218;6.640;2023-06-26T07:51:42;22.40;99.90
51950;DHT22;37974;53.218;6.640;2023-06-26T07:54:26;22.50;99.90
51950;DHT22;37974;53.218;6.640;2023-06-26T07:56:56;22.40;99.90
51950;DHT22;37974;53.218;6.640;2023-06-26T07:59:25;22.60;99.90
51950;DHT22;37974;53.218;6.640;2023-06-26T08:01:54;22.40;99.90
51950;DHT22;37974;53.218;6.640;2023-06-26T08:04:46;22.20;99.90
51950;DHT22;37974;53.218;6.640;2023-06-26T08:07:11;22.20;99.90
51950;DHT22;37974;53.218;6.640;2023-06-26T08:09:39;22.10;99.90
51950;DHT22;37974;53.218;6.640;2023-06-26T08:12:07;22.10;99.90
51950;DHT22;37974;53.218;6.640;2023-06-26T08:14:36;22.10;99.90
51950;DHT22;37974;53.218;6.640;2023-06-26T08:17:04;22.00;99.90
51950;DHT22;37974;53.218;6.640;2023-06-26T08:19:30;22.00;99.90
51950;DHT22;37974;53.218;6.640;2023-06-26T08:21:56;22.20;99.90
51950;DHT22;37974;53.218;6.640;2023-06-26T08:24:21;22.40;99.90
51950;DHT22;37974;53.218;6.640;2023-06-26T08:26:48;22.40;99.90
51950;DHT22;37974;53.218;6.640;2023-06-26T08:32:16;22.20;99.90
51950;DHT22;37974;53.218;6.640;2023-06-26T08:34:42;22.10;99.90
51950;DHT22;37974;53.218;6.640;2023-06-26T08:37:23;22.30;99.90
51950;DHT22;37974;53.218;6.640;2023-06-26T08:39:54;22.50;99.90
51950;DHT22;37974;53.218;6.640;2023-06-26T08:42:23;22.70;99.90
51950;DHT22;37974;53.218;6.640;2023-06-26T08:44:48;22.70;99.90
51950;DHT22;37974;53.218;6.640;2023-06-26T08:47:14;22.80;99.90
51950;DHT22;37974;53.218;6.640;2023-06-26T08:49:46;22.80;99.90
51950;DHT22;37974;53.218;6.640;2023-06-26T08:52:17;22.80;99.90
51950;DHT22;37974;53.218;6.640;2023-06-26T08:54:54;22.90;99.90
51950;DHT22;37974;53.218;6.640;2023-06-26T08:57:21;23.10;99.90
51950;DHT22;37974;53.218;6.640;2023-06-26T08:59:47;23.10;99.90
51950;DHT22;37974;53.218;6.640;2023-06-26T09:02:13;23.20;99.90
51950;DHT22;37974;53.218;6.640;2023-06-26T09:04:39;22.90;99.90
51950;DHT22;37974;53.218;6.640;2023-06-26T09:07:05;22.90;99.90
51950;DHT22;37974;53.218;6.640;2023-06-26T09:09:31;23.00;99.90
51950;DHT22;37974;53.218;6.640;2023-06-26T09:11:56;23.10;99.90
51950;DHT22;37974;53.218;6.640;2023-06-26T09:14:22;23.20;99.90
51950;DHT22;37974;53.218;6.640;2023-06-26T09:16:48;23.30;99.90
51950;DHT22;37974;53.218;6.640;2023-06-26T09:19:14;23.30;99.90
51950;DHT22;37974;53.218;6.640;2023-06-26T09:21:40;23.50;99.90
51950;DHT22;37974;53.218;6.640;2023-06-26T09:24:06;23.50;99.90
51950;DHT22;37974;53.218;6.640;2023-06-26T09:26:33;23.40;99.90
51950;DHT22;37974;53.218;6.640;2023-06-26T09:29:02;23.30;99.90
51950;DHT22;37974;53.218;6.640;2023-06-26T09:31:28;23.20;99.90
51950;DHT22;37974;53.218;6.640;2023-06-26T09:33:57;23.30;99.90
51950;DHT22;37974;53.218;6.640;2023-06-26T09:36:23;23.40;99.90
51950;DHT22;37974;53.218;6.640;2023-06-26T09:38:50;23.30;99.90
51950;DHT22;37974;53.218;6.640;2023-06-26T09:41:17;23.10;99.90
51950;DHT22;37974;53.218;6.640;2023-06-26T09:43:47;22.80;99.90
51950;DHT22;37974;53.218;6.640;2023-06-26T09:46:23;22.50;99.90
51950;DHT22;37974;53.218;6.640;2023-06-26T09:48:49;22.50;99.90
51950;DHT22;37974;53.218;6.640;2023-06-26T09:51:16;22.70;99.90
51950;DHT22;37974;53.218;6.640;2023-06-26T09:53:42;23.10;99.90
51950;DHT22;37974;53.218;6.640;2023-06-26T09:56:08;23.40;99.90
51950;DHT22;37974;53.218;6.640;2023-06-26T09:58:43;23.40;99.90
51950;DHT22;37974;53.218;6.640;2023-06-26T10:01:09;23.30;99.90
51950;DHT22;37974;53.218;6.640;2023-06-26T10:03:38;23.10;99.90
51950;DHT22;37974;53.218;6.640;2023-06-26T10:06:04;23.20;99.90
51950;DHT22;37974;53.218;6.640;2023-06-26T10:08:29;23.20;99.90
51950;DHT22;37974;53.218;6.640;2023-06-26T10:10:58;23.30;99.90
51950;DHT22;37974;53.218;6.640;2023-06-26T10:13:25;23.50;99.90
51950;DHT22;37974;53.218;6.640;2023-06-26T10:15:53;23.60;99.90
51950;DHT22;37974;53.218;6.640;2023-06-26T10:18:19;23.60;99.90
51950;DHT22;37974;53.218;6.640;2023-06-26T10:20:54;23.80;99.90
51950;DHT22;37974;53.218;6.640;2023-06-26T10:23:21;23.90;99.90
51950;DHT22;37974;53.218;6.640;2023-06-26T10:25:48;24.20;99.90
51950;DHT22;37974;53.218;6.640;2023-06-26T10:28:16;24.10;99.90
51950;DHT22;37974;53.218;6.640;2023-06-26T10:30:42;23.90;99.90
51950;DHT22;37974;53.218;6.640;2023-06-26T10:33:09;23.90;99.90
51950;DHT22;37974;53.218;6.640;2023-06-26T10:35:41;23.80;99.90
51950;DHT22;37974;53.218;6.640;2023-06-26T10:38:06;23.70;99.90
51950;DHT22;37974;53.218;6.640;2023-06-26T10:40:40;23.90;99.90
51950;DHT22;37974;53.218;6.640;2023-06-26T10:43:07;23.90;99.90
51950;DHT22;37974;53.218;6.640;2023-06-26T10:45:33;23.60;99.90
51950;DHT22;37974;53.218;6.640;2023-06-26T10:48:00;23.30;99.90
51950;DHT22;37974;53.218;6.640;2023-06-26T10:50:27;23.30;99.90
51950;DHT22;37974;53.218;6.640;2023-06-26T10:53:07;23.50;99.90
51950;DHT22;37974;53.218;6.640;2023-06-26T10:55:33;23.50;99.90
51950;DHT22;37974;53.218;6.640;2023-06-26T10:58:00;23.40;99.90
51950;DHT22;37974;53.218;6.640;2023-06-26T11:00:27;23.50;99.90
51950;DHT22;37974;53.218;6.640;2023-06-26T11:02:53;23.80;99.90
51950;DHT22;37974;53.218;6.640;2023-06-26T11:05:26;23.90;99.90
51950;DHT22;37974;53.218;6.640;2023-06-26T11:08:06;24.00;99.90
51950;DHT22;37974;53.218;6.640;2023-06-26T11:13:15;24.30;99.90
51950;DHT22;37974;53.218;6.640;2023-06-26T11:15:42;24.40;99.90
51950;DHT22;37974;53.218;6.640;2023-06-26T11:18:08;24.40;99.90
51950;DHT22;37974;53.218;6.640;2023-06-26T11:20:33;24.40;99.90
51950;DHT22;37974;53.218;6.640;2023-06-26T11:22:59;24.40;99.90
51950;DHT22;37974;53.218;6.640;2023-06-26T11:25:25;24.40;99.90
51950;DHT22;37974;53.218;6.640;2023-06-26T11:27:52;24.40;99.90
51950;DHT22;37974;53.218;6.640;2023-06-26T11:30:23;24.20;99.90
51950;DHT22;37974;53.218;6.640;2023-06-26T11:32:49;24.00;99.90
51950;DHT22;37974;53.218;6.640;2023-06-26T11:35:22;23.70;99.90
51950;DHT22;37974;53.218;6.640;2023-06-26T11:37:58;23.50;99.90
51950;DHT22;37974;53.218;6.640;2023-06-26T11:40:25;23.50;99.90
51950;DHT22;37974;53.218;6.640;2023-06-26T11:42:52;23.80;99.90
51950;DHT22;37974;53.218;6.640;2023-06-26T11:45:19;23.90;99.90
51950;DHT22;37974;53.218;6.640;2023-06-26T11:47:45;23.80;99.90
51950;DHT22;37974;53.218;6.640;2023-06-26T11:50:15;23.90;99.90
51950;DHT22;37974;53.218;6.640;2023-06-26T11:52:41;23.80;99.90
51950;DHT22;37974;53.218;6.640;2023-06-26T11:55:07;23.80;99.90
51950;DHT22;37974;53.218;6.640;2023-06-26T11:57:33;23.90;99.90
51950;DHT22;37974;53.218;6.640;2023-06-26T11:59:58;24.00;99.90
51950;DHT22;37974;53.218;6.640;2023-06-26T12:02:35;23.90;99.90
51950;DHT22;37974;53.218;6.640;2023-06-26T12:05:01;23.80;99.90
51950;DHT22;37974;53.218;6.640;2023-06-26T12:07:26;23.90;99.90
51950;DHT22;37974;53.218;6.640;2023-06-26T12:09:52;24.10;99.90
51950;DHT22;37974;53.218;6.640;2023-06-26T12:12:18;24.40;99.90
51950;DHT22;37974;53.218;6.640;2023-06-26T12:14:44;24.40;99.90
51950;DHT22;37974;53.218;6.640;2023-06-26T12:17:11;24.50;99.90
51950;DHT22;37974;53.218;6.640;2023-06-26T12:19:43;24.50;99.90
51950;DHT22;37974;53.218;6.640;2023-06-26T12:22:09;24.50;99.90
51950;DHT22;37974;53.218;6.640;2023-06-26T12:24:36;24.40;99.90
51950;DHT22;37974;53.218;6.640;2023-06-26T12:27:07;24.40;99.90
51950;DHT22;37974;53.218;6.640;2023-06-26T12:29:37;24.20;99.90
51950;DHT22;37974;53.218;6.640;2023-06-26T12:32:03;24.20;99.90
51950;DHT22;37974;53.218;6.640;2023-06-26T12:34:30;24.40;99.90
51950;DHT22;37974;53.218;6.640;2023-06-26T12:36:59;24.40;99.90
51950;DHT22;37974;53.218;6.640;2023-06-26T12:39:25;24.00;99.90
51950;DHT22;37974;53.218;6.640;2023-06-26T12:41:54;23.80;99.90
51950;DHT22;37974;53.218;6.640;2023-06-26T12:44:21;23.70;99.90
51950;DHT22;37974;53.218;6.640;2023-06-26T12:46:47;23.70;99.90
51950;DHT22;37974;53.218;6.640;2023-06-26T12:49:14;23.60;97.60
51950;DHT22;37974;53.218;6.640;2023-06-26T12:51:39;23.70;98.40
51950;DHT22;37974;53.218;6.640;2023-06-26T12:54:05;23.80;98.50
51950;DHT22;37974;53.218;6.640;2023-06-26T12:56:31;23.80;98.70
51950;DHT22;37974;53.218;6.640;2023-06-26T12:58:57;23.80;98.80
51950;DHT22;37974;53.218;6.640;2023-06-26T13:01:29;24.20;99.00
51950;DHT22;37974;53.218;6.640;2023-06-26T13:03:54;23.60;99.20
51950;DHT22;37974;53.218;6.640;2023-06-26T13:06:20;23.50;98.90
51950;DHT22;37974;53.218;6.640;2023-06-26T13:08:46;23.30;98.30
51950;DHT22;37974;53.218;6.640;2023-06-26T13:11:11;23.30;99.40
51950;DHT22;37974;53.218;6.640;2023-06-26T13:13:37;23.20;99.60
51950;DHT22;37974;53.218;6.640;2023-06-26T13:16:03;23.10;99.50
51950;DHT22;37974;53.218;6.640;2023-06-26T13:18:28;23.10;99.90
51950;DHT22;37974;53.218;6.640;2023-06-26T13:20:54;23.20;99.90
51950;DHT22;37974;53.218;6.640;2023-06-26T13:23:20;23.10;99.80
51950;DHT22;37974;53.218;6.640;2023-06-26T13:25:45;23.10;99.90
51950;DHT22;37974;53.218;6.640;2023-06-26T13:28:11;23.10;99.80
51950;DHT22;37974;53.218;6.640;2023-06-26T13:30:36;23.10;99.90
51950;DHT22;37974;53.218;6.640;2023-06-26T13:33:02;23.10;99.90
51950;DHT22;37974;53.218;6.640;2023-06-26T13:35:28;23.20;99.90
51950;DHT22;37974;53.218;6.640;2023-06-26T13:37:56;23.20;99.90
51950;DHT22;37974;53.218;6.640;2023-06-26T13:40:22;23.00;99.90
51950;DHT22;37974;53.218;6.640;2023-06-26T13:42:47;23.00;99.90
51950;DHT22;37974;53.218;6.640;2023-06-26T13:45:13;23.00;99.90
51950;DHT22;37974;53.218;6.640;2023-06-26T13:47:39;23.00;99.90
51950;DHT22;37974;53.218;6.640;2023-06-26T13:50:07;22.80;99.90
51950;DHT22;37974;53.218;6.640;2023-06-26T13:52:33;22.60;99.90
51950;DHT22;37974;53.218;6.640;2023-06-26T13:54:59;22.50;99.90
51950;DHT22;37974;53.218;6.640;2023-06-26T13:57:25;22.50;99.90
51950;DHT22;37974;53.218;6.640;2023-06-26T14:00:05;22.40;99.90
51950;DHT22;37974;53.218;6.640;2023-06-26T14:02:30;22.40;99.90
51950;DHT22;37974;53.218;6.640;2023-06-26T14:04:56;22.40;99.90
51950;DHT22;37974;53.218;6.640;2023-06-26T14:07:24;22.60;99.90
51950;DHT22;37974;53.218;6.640;2023-06-26T14:09:50;22.40;99.90
51950;DHT22;37974;53.218;6.640;2023-06-26T14:12:15;22.40;99.90
51950;DHT22;37974;53.218;6.640;2023-06-26T14:14:41;22.30;99.90
51950;DHT22;37974;53.218;6.640;2023-06-26T14:17:18;22.30;99.90
51950;DHT22;37974;53.218;6.640;2023-06-26T14:19:53;22.40;99.90
51950;DHT22;37974;53.218;6.640;2023-06-26T14:22:19;22.30;99.90
51950;DHT22;37974;53.218;6.640;2023-06-26T14:24:45;22.30;99.90
51950;DHT22;37974;53.218;6.640;2023-06-26T14:27:10;22.40;99.90
51950;DHT22;37974;53.218;6.640;2023-06-26T14:29:48;22.50;99.90
51950;DHT22;37974;53.218;6.640;2023-06-26T14:32:14;22.40;99.90
51950;DHT22;37974;53.218;6.640;2023-06-26T14:34:40;22.40;99.90
51950;DHT22;37974;53.218;6.640;2023-06-26T15:22:56;22.00;99.90
51950;DHT22;37974;53.218;6.640;2023-06-26T15:25:29;21.90;99.90
51950;DHT22;37974;53.218;6.640;2023-06-26T15:27:57;21.90;99.90
51950;DHT22;37974;53.218;6.640;2023-06-26T15:30:28;21.90;99.90
51950;DHT22;37974;53.218;6.640;2023-06-26T15:32:54;21.80;99.90
51950;DHT22;37974;53.218;6.640;2023-06-26T15:35:20;21.90;99.90
51950;DHT22;37974;53.218;6.640;2023-06-26T15:37:45;22.10;99.90
51950;DHT22;37974;53.218;6.640;2023-06-26T15:40:29;22.10;99.90
51950;DHT22;37974;53.218;6.640;2023-06-26T15:43:39;22.20;99.90
51950;DHT22;37974;53.218;6.640;2023-06-26T15:46:41;22.00;99.90
51950;DHT22;37974;53.218;6.640;2023-06-26T15:49:06;22.20;99.90
51950;DHT22;37974;53.218;6.640;2023-06-26T15:51:44;22.10;99.90
51950;DHT22;37974;53.218;6.640;2023-06-26T15:54:10;21.80;99.90
51950;DHT22;37974;53.218;6.640;2023-06-26T15:56:36;22.00;99.90
51950;DHT22;37974;53.218;6.640;2023-06-26T16:02:14;22.70;99.90
51950;DHT22;37974;53.218;6.640;2023-06-26T16:05:01;23.00;99.90
51950;DHT22;37974;53.218;6.640;2023-06-26T16:07:29;23.10;99.10
51950;DHT22;37974;53.218;6.640;2023-06-26T16:09:56;23.10;98.60
51950;DHT22;37974;53.218;6.640;2023-06-26T16:12:22;23.20;98.50
51950;DHT22;37974;53.218;6.640;2023-06-26T16:14:50;23.20;98.70
51950;DHT22;37974;53.218;6.640;2023-06-26T16:17:22;23.20;98.70
51950;DHT22;37974;53.218;6.640;2023-06-26T16:19:47;23.40;98.90
51950;DHT22;37974;53.218;6.640;2023-06-26T16:22:51;23.50;97.40
51950;DHT22;37974;53.218;6.640;2023-06-26T16:25:11;23.60;97.50
51950;DHT22;37974;53.218;6.640;2023-06-26T16:27:37;23.90;97.60
51950;DHT22;37974;53.218;6.640;2023-06-26T16:30:22;24.00;97.90
51950;DHT22;37974;53.218;6.640;2023-06-26T16:33:04;24.10;95.90
51950;DHT22;37974;53.218;6.640;2023-06-26T16:38:43;23.90;94.30
51950;DHT22;37974;53.218;6.640;2023-06-26T16:41:12;23.80;95.30
51950;DHT22;37974;53.218;6.640;2023-06-26T16:43:56;24.10;95.30
51950;DHT22;37974;53.218;6.640;2023-06-26T16:46:25;24.20;94.70
51950;DHT22;37974;53.218;6.640;2023-06-26T16:58:34;25.70;91.60
51950;DHT22;37974;53.218;6.640;2023-06-26T17:00:59;25.70;92.00
51950;DHT22;37974;53.218;6.640;2023-06-26T17:13:34;26.10;90.90
51950;DHT22;37974;53.218;6.640;2023-06-26T17:16:03;26.60;90.60
51950;DHT22;37974;53.218;6.640;2023-06-26T17:21:36;27.20;89.00
51950;DHT22;37974;53.218;6.640;2023-06-26T17:24:32;27.40;86.70
51950;DHT22;37974;53.218;6.640;2023-06-26T17:27:09;27.20;82.70
51950;DHT22;37974;53.218;6.640;2023-06-26T17:29:35;27.00;82.80
51950;DHT22;37974;53.218;6.640;2023-06-26T17:32:04;26.60;82.90
51950;DHT22;37974;53.218;6.640;2023-06-26T17:34:42;26.60;82.80
51950;DHT22;37974;53.218;6.640;2023-06-26T17:37:07;26.80;82.50
51950;DHT22;37974;53.218;6.640;2023-06-26T17:39:35;26.50;82.10
51950;DHT22;37974;53.218;6.640;2023-06-26T17:42:04;26.60;82.50
51950;DHT22;37974;53.218;6.640;2023-06-26T17:44:33;26.70;82.30
51950;DHT22;37974;53.218;6.640;2023-06-26T17:47:00;26.70;80.90
51950;DHT22;37974;53.218;6.640;2023-06-26T17:49:26;26.60;82.70
51950;DHT22;37974;53.218;6.640;2023-06-26T17:51:52;26.10;81.10
51950;DHT22;37974;53.218;6.640;2023-06-26T17:54:17;25.50;81.20
51950;DHT22;37974;53.218;6.640;2023-06-26T17:57:12;24.60;84.40
51950;DHT22;37974;53.218;6.640;2023-06-26T17:59:36;24.00;86.10
51950;DHT22;37974;53.218;6.640;2023-06-26T18:02:02;23.20;86.20
51950;DHT22;37974;53.218;6.640;2023-06-26T18:04:28;22.80;87.70
51950;DHT22;37974;53.218;6.640;2023-06-26T18:06:54;22.30;88.80
51950;DHT22;37974;53.218;6.640;2023-06-26T18:09:20;22.40;90.10
51950;DHT22;37974;53.218;6.640;2023-06-26T18:11:54;21.60;90.40
51950;DHT22;37974;53.218;6.640;2023-06-26T18:14:20;21.30;90.60
51950;DHT22;37974;53.218;6.640;2023-06-26T18:16:45;21.00;91.40
51950;DHT22;37974;53.218;6.640;2023-06-26T18:19:11;20.70;91.70
51950;DHT22;37974;53.218;6.640;2023-06-26T18:21:37;20.80;91.80
51950;DHT22;37974;53.218;6.640;2023-06-26T18:24:03;20.70;91.70
51950;DHT22;37974;53.218;6.640;2023-06-26T18:26:28;20.50;91.90
51950;DHT22;37974;53.218;6.640;2023-06-26T18:28:54;20.40;92.90
51950;DHT22;37974;53.218;6.640;2023-06-26T18:31:21;20.40;93.60
51950;DHT22;37974;53.218;6.640;2023-06-26T18:33:56;20.40;93.90
51950;DHT22;37974;53.218;6.640;2023-06-26T18:36:24;20.50;94.10
51950;DHT22;37974;53.218;6.640;2023-06-26T18:38:50;20.50;94.30
51950;DHT22;37974;53.218;6.640;2023-06-26T18:41:16;20.40;94.80
51950;DHT22;37974;53.218;6.640;2023-06-26T18:43:42;20.30;95.00
51950;DHT22;37974;53.218;6.640;2023-06-26T18:46:10;20.30;95.00
51950;DHT22;37974;53.218;6.640;2023-06-26T18:48:36;20.20;94.90
51950;DHT22;37974;53.218;6.640;2023-06-26T18:51:02;20.20;95.60
51950;DHT22;37974;53.218;6.640;2023-06-26T18:53:27;20.10;95.90
51950;DHT22;37974;53.218;6.640;2023-06-26T18:55:54;20.00;95.10
51950;DHT22;37974;53.218;6.640;2023-06-26T18:58:19;19.90;95.70
51950;DHT22;37974;53.218;6.640;2023-06-26T19:00:45;19.80;95.90
51950;DHT22;37974;53.218;6.640;2023-06-26T19:03:11;19.70;97.10
51950;DHT22;37974;53.218;6.640;2023-06-26T19:05:36;19.60;97.50
51950;DHT22;37974;53.218;6.640;2023-06-26T19:08:02;19.50;98.20
51950;DHT22;37974;53.218;6.640;2023-06-26T19:10:31;19.50;98.00
51950;DHT22;37974;53.218;6.640;2023-06-26T19:12:56;19.40;99.20
51950;DHT22;37974;53.218;6.640;2023-06-26T19:15:22;19.40;98.60
51950;DHT22;37974;53.218;6.640;2023-06-26T19:17:48;19.20;98.90
51950;DHT22;37974;53.218;6.640;2023-06-26T19:20:14;19.30;99.90
51950;DHT22;37974;53.218;6.640;2023-06-26T19:22:40;19.30;99.90
51950;DHT22;37974;53.218;6.640;2023-06-26T19:25:05;19.30;99.90
51950;DHT22;37974;53.218;6.640;2023-06-26T19:27:31;19.20;99.90
51950;DHT22;37974;53.218;6.640;2023-06-26T19:29:57;19.20;99.90
51950;DHT22;37974;53.218;6.640;2023-06-26T19:32:23;19.20;99.90
51950;DHT22;37974;53.218;6.640;2023-06-26T19:34:48;19.10;99.90
51950;DHT22;37974;53.218;6.640;2023-06-26T19:37:14;19.00;99.90
51950;DHT22;37974;53.218;6.640;2023-06-26T19:39:39;19.00;99.90
51950;DHT22;37974;53.218;6.640;2023-06-26T19:42:05;18.90;99.90
51950;DHT22;37974;53.218;6.640;2023-06-26T19:44:31;18.80;99.90
51950;DHT22;37974;53.218;6.640;2023-06-26T19:46:57;18.80;99.90
51950;DHT22;37974;53.218;6.640;2023-06-26T19:49:22;18.80;99.90
51950;DHT22;37974;53.218;6.640;2023-06-26T19:51:49;18.80;99.90